Flight Track Log - Related Links

Times and Time Zones

All times are in EDT time to prevent confusion due to time zone crossing. See the AWI3722 flight status page for this flight to view local times or setup timezone preferences in your user account.

Time Position Orientation Groundspeed Altitude Reporting Facility
EDT Latitude Longitude Course Direction KTS MPH feet Rate Location/Type
Thu 01:56:18 PM 39.8833 -75.2167 90° East 161 185 700  Level Philadelphia TRACON
Thu 01:56:44 PM 39.8736 -75.1925 118° Southeast 186 214 1,500 2,087 Climbing FAA TRACON SMA TRACON (SMA)
Thu 01:57:04 PM 39.8700 -75.1731 104° East 182 209 2,300 1,800 Climbing FAA TRACON SMA TRACON (SMA)
Thu 01:57:24 PM 39.8678 -75.1508 97° East 207 238 2,700 1,650 Climbing FAA TRACON SMA TRACON (SMA)
Thu 01:57:44 PM 39.8647 -75.1211 98° East 220 253 3,400 1,800 Climbing FAA TRACON SMA TRACON (SMA)
Thu 01:58:00 PM 39.8064 -74.8154 105° East  Level FlightAware Approximate
Thu 01:58:04 PM 39.8639 -75.0933 92° East 244 281 3,900  Level FAA TRACON SMA TRACON (SMA)
Thu 01:58:24 PM 39.8625 -75.0678 94° East 250 288 4,400 1,950 Climbing FAA TRACON SMA TRACON (SMA)
Thu 01:58:44 PM 39.8594 -75.0281 96° East 270 311 5,200 2,100 Climbing FAA TRACON SMA TRACON (SMA)
Thu 01:59:00 PM 39.7884 -74.6746 75° East  Level FlightAware Approximate
Thu 01:59:04 PM 39.8531 -74.9997 106° East 283 326 5,800  Level FAA TRACON SMA TRACON (SMA)
Thu 01:59:24 PM 39.8472 -74.9694 104° East 277 319 6,600 2,700 Climbing FAA TRACON SMA TRACON (SMA)
Thu 01:59:44 PM 39.8389 -74.9319 106° East 282 325 7,600 2,400 Climbing FAA TRACON SMA TRACON (SMA)
Thu 02:00:00 PM 39.8000 -74.5309 90° East  Level FlightAware Approximate
Thu 02:00:04 PM 39.8336 -74.9058 105° East 284 327 8,200  Level FAA TRACON SMA TRACON (SMA)
Thu 02:00:44 PM 39.8167 -74.8300 106° East 297 342 10,000 2,500 Climbing FAA TRACON SMA TRACON (SMA)
Thu 02:01:00 PM 39.8167 -74.3960 90° East  Level FlightAware Approximate
Thu 02:01:04 PM 39.8125 -74.7964 99° East 311 358 10,700  Level FAA TRACON SMA TRACON (SMA)
Thu 02:01:24 PM 39.8208 -74.7642 71° East 298 343 11,500 2,250 Climbing FAA TRACON SMA TRACON (SMA)
Thu 02:01:44 PM 39.8467 -74.7353 41° Northeast 317 365 12,200 1,800 Climbing FAA TRACON SMA TRACON (SMA)
Thu 02:02:04 PM 39.8667 -74.7117 42° Northeast 328 377 12,700 1,800 Climbing FAA TRACON SMA TRACON (SMA)
Thu 02:02:24 PM 39.8881 -74.6875 41° Northeast 328 377 13,400 2,100 Climbing FAA TRACON SMA TRACON (SMA)
Thu 02:02:44 PM 39.9158 -74.6567 40° Northeast 331 381 14,100 1,350 Climbing FAA TRACON SMA TRACON (SMA)
Thu 02:03:04 PM 39.9372 -74.6308 43° Northeast 339 390 14,300 1,050 Climbing FAA TRACON SMA TRACON (SMA)
Thu 02:03:24 PM 39.9594 -74.6036 43° Northeast 360 414 14,800 2,049 Climbing FAA TRACON SMA TRACON (SMA)
Thu 02:03:45 PM 39.9856 -74.5700 45° Northeast 362 417 15,700 2,550 Climbing FAA TRACON SMA TRACON (SMA)
Thu 02:04:04 PM 40.0086 -74.5417 43° Northeast 354 407 16,500 2,462 Climbing FAA TRACON SMA TRACON (SMA)
Thu 02:04:24 PM 40.0322 -74.5169 39° Northeast 348 400 17,300 1,800 Climbing FAA TRACON SMA TRACON (SMA)
Thu 02:04:44 PM 40.0583 -74.4856 43° Northeast 343 395 17,700 700 Climbing FAA TRACON SMA TRACON (SMA)
Thu 02:05:24 PM 40.0872 -74.4539 40° Northeast 348 400 18,000 1,265 Climbing FAA TRACON SMA TRACON (SMA)
Thu 02:07:11 PM 40.2422 -74.2978 38° Northeast 359 413 20,800 1,564 Climbing New York Center
Thu 02:08:09 PM 40.3236 -74.2203 36° Northeast 359 413 22,300 1,210 Climbing New York Center
Thu 02:09:10 PM 40.4053 -74.1369 38° Northeast 364 419 23,200 942 Climbing New York Center
Thu 02:10:10 PM 40.4869 -74.0511 39° Northeast 369 425 24,200 992 Climbing New York Center
Thu 02:11:11 PM 40.5725 -73.9678 36° Northeast 375 432 25,200 893 Climbing New York Center
Thu 02:12:11 PM 40.6625 -73.8789 37° Northeast 380 437 26,000 843 Climbing New York Center
Thu 02:13:12 PM 40.7769 -73.8047 26° Northeast 394 453 26,900 500 Climbing New York Center
Thu 02:14:11 PM 40.8786 -73.7325 28° Northeast 404 465 27,000 31 Climbing New York Center
Thu 02:16:26 PM 41.1131 -73.5697 28° Northeast 411 473 27,000  Level Boston Center
Thu 02:17:27 PM 41.2258 -73.5494 North 406 467 27,000  Level Boston Center
Thu 02:18:25 PM 41.3428 -73.5267 North 406 467 27,000  Level Boston Center
Thu 02:19:26 PM 41.4533 -73.5064 North 408 470 27,000  Level Boston Center
Thu 02:20:26 PM 41.5556 -73.4858 North 408 470 27,000  Level Boston Center
Thu 02:21:27 PM 41.6683 -73.4600 10° North 408 470 27,000  Level Boston Center
Thu 02:22:27 PM 41.7811 -73.4394 North 408 470 27,000  Level Boston Center
Thu 02:23:25 PM 41.8961 -73.4161 North 408 470 27,000  Level Boston Center
Thu 02:24:25 PM 42.0086 -73.3928 North 408 470 27,000  Level Boston Center
Thu 02:25:26 PM 42.1383 -73.3611 10° North 413 475 27,000  Level Boston Center
Thu 02:26:27 PM 42.2383 -73.3486 North 406 467 27,000  Level Boston Center
Thu 02:27:25 PM 42.3286 -73.2517 38° Northeast 386 444 27,000  Level Boston Center
Thu 02:28:25 PM 42.4108 -73.1036 53° Northeast 408 470 27,000  Level Boston Center
Thu 02:29:26 PM 42.4783 -72.9750 55° Northeast 408 470 27,000  Level Boston Center
Thu 02:30:27 PM 42.5497 -72.8431 54° Northeast 418 481 27,000  Level Boston Center
Thu 02:31:27 PM 42.6208 -72.7194 52° Northeast 418 481 27,000  Level Boston Center
Thu 02:32:25 PM 42.6942 -72.5983 50° Northeast 418 481 27,000  Level Boston Center
Thu 02:33:25 PM 42.7631 -72.4683 54° Northeast 423 487 27,000  Level Boston Center
Thu 02:34:26 PM 42.8339 -72.3411 53° Northeast 423 487 27,000 -446 Level Boston Center
Thu 02:35:26 PM 42.8983 -72.2106 56° Northeast 410 472 26,100 -1,438 Descending Boston Center
Thu 02:36:27 PM 42.9689 -72.0797 54° Northeast 410 472 24,100 -1,983 Descending Boston Center
Thu 02:37:27 PM 43.0392 -71.9514 53° Northeast 410 472 22,100 -1,780 Descending Boston Center
Thu 02:38:25 PM 43.1114 -71.8117 55° Northeast 422 486 20,600 -1,780 Descending Boston Center
Thu 02:39:25 PM 43.1836 -71.6769 54° Northeast 438 504 18,600 -1,736 Descending Boston Center
Thu 02:40:26 PM 43.2472 -71.5564 54° Northeast 433 498 17,100 -1,800 Descending Boston Center
Thu 02:41:25 PM 43.3231 -71.4128 54° Northeast 428 493 15,000 -2,100 Descending Boston Center
Thu 02:42:26 PM 43.3886 -71.2886 54° Northeast 418 481 12,900 -1,967 Descending Boston Center
Thu 02:43:27 PM 43.4458 -71.1761 55° Northeast 404 465 11,000 -942 Descending Boston Center
Thu 02:44:27 PM 43.4942 -71.0264 66° East 384 442 11,000 -407 Level Boston Center
Thu 02:45:25 PM 43.5281 -70.9022 69° East 379 436 10,200 -1,109 Descending Boston Center
Thu 02:46:26 PM 43.5639 -70.7869 67° East 341 392 8,800 -2,016 Descending Boston Center
Thu 02:47:27 PM 43.6017 -70.6653 67° East 312 359 6,100 -2,331 Descending Boston Center
Thu 02:48:27 PM 43.6461 -70.5836 53° Northeast 297 342 4,100 -1,400 Descending Boston Center
Thu 02:49:27 PM 43.6594 -70.4972 78° East 240 276 3,300 -1,169 Descending Boston Center
Thu 02:50:25 PM 43.6542 -70.4428 98° East 170 196 1,800 -1,169 Descending Boston Center
Thu 02:51:25 PM 43.6511 -70.3828 94° East 140 161 1,000 4,562 Descending Boston Center
Thu 02:52:26 PM 43.6481 -70.3369 95° East 140 161 11,000 4,959 Climbing Boston Center
Thu 02:53:26 PM 43.6450 -70.2825 94° East 140 161 11,000  Level Boston Center
Thu 02:54:26 PM 43.6442 -70.2308 91° East 140 161 11,000  Level Boston Center
Thu 02:55:25 PM 43.6431 -70.1822 92° East 140 161 11,000  Level Boston Center
Thu 02:56:25 PM 43.6422 -70.1306 91° East 140 161 11,000  Level Boston Center
Thu 02:57:26 PM 43.6422 -70.1306 55° Northeast 140 161 11,000  Level Boston Center

Login

Don't have an account? Register now (free) for customized features, flight alerts, and more!